createdAt,value
2019-04-04T00:00:10.976Z,56.20
2019-04-04T00:02:40.606Z,56.90
2019-04-04T00:05:10.038Z,56.90
2019-04-04T00:07:39.844Z,57.00
2019-04-04T00:10:09.271Z,57.00
2019-04-04T00:12:39.108Z,57.20
2019-04-04T00:15:08.917Z,57.00
2019-04-04T00:17:38.627Z,57.10
2019-04-04T00:20:08.176Z,57.20
2019-04-04T00:22:37.632Z,57.10
2019-04-04T00:25:09.789Z,57.10
2019-04-04T00:27:38.475Z,57.20
2019-04-04T00:30:08.300Z,57.30
2019-04-04T00:32:37.609Z,57.30
2019-04-04T00:35:07.404Z,57.40
2019-04-04T00:37:36.965Z,57.50
2019-04-04T00:40:10.769Z,57.60
2019-04-04T00:42:38.793Z,57.50
2019-04-04T00:45:08.280Z,57.50
2019-04-04T00:47:37.795Z,57.50
2019-04-04T00:50:08.073Z,57.50
2019-04-04T00:52:40.590Z,57.50
2019-04-04T00:55:08.553Z,57.60
2019-04-04T00:57:38.074Z,57.50
2019-04-04T01:00:08.385Z,57.50
2019-04-04T01:02:37.861Z,57.60
2019-04-04T01:05:07.568Z,57.60
2019-04-04T01:07:37.440Z,57.60
2019-04-04T01:10:07.737Z,57.60
2019-04-04T01:12:37.293Z,57.70
2019-04-04T01:15:07.837Z,57.70
2019-04-04T01:17:37.215Z,57.70
2019-04-04T01:20:07.925Z,57.70
2019-04-04T01:22:37.492Z,57.70
2019-04-04T01:25:07.762Z,57.70
2019-04-04T01:27:37.647Z,57.60
2019-04-04T01:30:11.770Z,57.70
2019-04-04T01:32:39.287Z,57.70
2019-04-04T01:35:08.686Z,57.70
2019-04-04T01:37:38.478Z,57.70
2019-04-04T01:40:08.022Z,57.70
2019-04-04T01:42:38.689Z,57.70
2019-04-04T01:45:08.374Z,57.70
2019-04-04T01:47:37.958Z,57.70
2019-04-04T01:50:07.433Z,57.70
2019-04-04T01:52:36.726Z,57.70
2019-04-04T01:55:06.482Z,57.70
2019-04-04T01:57:38.536Z,57.80
2019-04-04T02:00:08.110Z,57.70
2019-04-04T02:02:37.672Z,57.70
2019-04-04T02:05:07.046Z,57.70
2019-04-04T02:07:36.671Z,57.70
2019-04-04T02:10:06.881Z,57.70
2019-04-04T02:12:38.472Z,57.60
2019-04-04T02:15:08.545Z,57.80
2019-04-04T02:17:38.341Z,58.40
2019-04-04T02:20:08.147Z,57.70
2019-04-04T02:22:37.870Z,57.70
2019-04-04T02:25:07.735Z,57.70
2019-04-04T02:27:37.889Z,57.70
2019-04-04T02:30:08.687Z,57.70
2019-04-04T02:32:38.663Z,57.70
2019-04-04T02:35:10.644Z,57.70
2019-04-04T02:37:39.032Z,57.70
2019-04-04T02:40:10.004Z,57.70
2019-04-04T02:42:40.024Z,57.70
2019-04-04T02:45:09.842Z,57.70
2019-04-04T02:47:39.487Z,57.70
2019-04-04T02:50:09.321Z,57.70
2019-04-04T02:52:38.600Z,58.30
2019-04-04T02:55:08.186Z,57.70
2019-04-04T02:57:41.074Z,57.70
2019-04-04T03:00:08.306Z,57.70
2019-04-04T03:02:37.984Z,57.60
2019-04-04T03:05:07.639Z,57.70
2019-04-04T03:07:37.307Z,57.60
2019-04-04T03:10:06.809Z,57.70
2019-04-04T03:12:36.106Z,57.60
2019-04-04T03:15:09.187Z,57.60
2019-04-04T03:17:39.034Z,57.60
2019-04-04T03:20:08.696Z,57.70
2019-04-04T03:22:38.358Z,57.70
2019-04-04T03:25:07.925Z,57.60
2019-04-04T03:27:37.598Z,57.60
2019-04-04T03:30:13.181Z,58.30
2019-04-04T03:32:39.036Z,57.60
2019-04-04T03:35:08.410Z,57.60
2019-04-04T03:37:40.451Z,57.60
2019-04-04T03:40:08.961Z,57.50
2019-04-04T03:42:38.431Z,57.50
2019-04-04T03:45:07.829Z,57.50
2019-04-04T03:47:37.811Z,57.50
2019-04-04T03:50:07.601Z,57.50
2019-04-04T03:52:36.999Z,57.50
2019-04-04T03:55:07.221Z,57.50
2019-04-04T03:57:36.776Z,57.50
2019-04-04T04:00:07.498Z,57.40
2019-04-04T04:02:37.222Z,57.50
2019-04-04T04:05:08.449Z,57.50
2019-04-04T04:07:37.725Z,57.50
2019-04-04T04:10:07.527Z,57.50
2019-04-04T04:12:36.798Z,57.40
2019-04-04T04:15:07.066Z,57.40
2019-04-04T04:17:36.958Z,57.40
2019-04-04T04:20:06.980Z,57.40
2019-04-04T04:22:36.432Z,57.40
2019-04-04T04:25:06.514Z,57.40
2019-04-04T04:27:36.133Z,57.40
2019-04-04T04:30:07.456Z,57.40
2019-04-04T04:32:37.506Z,57.30
2019-04-04T04:35:08.747Z,57.30
2019-04-04T04:37:38.385Z,57.30
2019-04-04T04:40:11.036Z,57.30
2019-04-04T04:42:39.385Z,57.40
2019-04-04T04:45:10.889Z,57.40
2019-04-04T04:47:39.600Z,57.30
2019-04-04T04:50:09.995Z,57.20
2019-04-04T04:52:39.427Z,57.30
2019-04-04T04:55:11.828Z,57.20
2019-04-04T04:57:39.668Z,57.30
2019-04-04T05:00:09.470Z,57.20
2019-04-04T05:02:39.413Z,57.30
2019-04-04T05:05:08.817Z,57.20
2019-04-04T05:07:39.057Z,57.30
2019-04-04T05:10:09.543Z,57.20
2019-04-04T05:12:39.384Z,57.20
2019-04-04T05:15:08.668Z,57.20
2019-04-04T05:17:39.971Z,57.20
2019-04-04T05:20:09.576Z,57.20
2019-04-04T05:22:40.033Z,57.20
2019-04-04T05:25:09.725Z,57.10
2019-04-04T05:27:39.311Z,57.20
2019-04-04T05:30:08.733Z,57.20
2019-04-04T05:32:38.084Z,57.20
2019-04-04T05:35:07.868Z,57.10
2019-04-04T05:37:38.238Z,57.00
2019-04-04T05:40:08.806Z,57.20
2019-04-04T05:42:38.456Z,57.10
2019-04-04T05:45:08.383Z,57.10
2019-04-04T05:47:37.911Z,57.10
2019-04-04T05:50:10.874Z,57.10
2019-04-04T05:52:38.341Z,57.10
2019-04-04T05:55:10.188Z,57.10
2019-04-04T05:57:39.494Z,57.10
2019-04-04T06:00:10.271Z,57.10
2019-04-04T06:02:41.068Z,57.10
2019-04-04T06:05:10.775Z,57.10
2019-04-04T06:07:40.360Z,57.00
2019-04-04T06:10:12.017Z,57.10
2019-04-04T06:12:41.579Z,57.00
2019-04-04T06:15:10.986Z,57.00
2019-04-04T06:17:40.476Z,57.00
2019-04-04T06:20:10.033Z,57.10
2019-04-04T06:22:39.607Z,57.00
2019-04-04T06:25:09.227Z,57.00
2019-04-04T06:27:40.277Z,57.00
2019-04-04T06:30:10.049Z,56.90
2019-04-04T06:32:39.820Z,57.00
2019-04-04T06:35:09.167Z,56.90
2019-04-04T06:37:38.996Z,57.60
2019-04-04T06:40:08.915Z,57.00
2019-04-04T06:42:38.627Z,57.00
2019-04-04T06:45:08.374Z,56.90
2019-04-04T06:47:37.852Z,57.00
2019-04-04T06:50:08.508Z,57.00
2019-04-04T06:52:37.957Z,57.00
2019-04-04T06:55:07.736Z,56.90
2019-04-04T06:57:37.590Z,56.80
2019-04-04T07:00:08.696Z,56.90
2019-04-04T07:02:37.977Z,56.90
2019-04-04T07:05:10.442Z,56.90
2019-04-04T07:07:38.603Z,56.80
2019-04-04T07:10:08.378Z,56.80
2019-04-04T07:12:38.684Z,56.80
2019-04-04T07:15:11.113Z,56.20
2019-04-04T07:17:40.409Z,56.70
2019-04-04T07:20:10.984Z,56.80
2019-04-04T07:22:40.420Z,56.70
2019-04-04T07:25:09.830Z,56.70
2019-04-04T07:27:39.452Z,56.80
2019-04-04T07:30:08.934Z,56.70
2019-04-04T07:32:40.809Z,56.70
2019-04-04T07:35:09.747Z,56.70
2019-04-04T07:37:39.377Z,56.70
2019-04-04T07:40:09.044Z,56.70
2019-04-04T07:42:40.185Z,56.70
2019-04-04T07:45:09.274Z,56.60
2019-04-04T07:47:38.976Z,56.60
2019-04-04T07:50:08.494Z,56.70
2019-04-04T07:52:37.924Z,56.60
2019-04-04T07:55:10.031Z,56.60
2019-04-04T07:57:38.580Z,56.70
2019-04-04T08:00:08.419Z,56.60
2019-04-04T08:02:37.696Z,56.60
2019-04-04T08:05:08.451Z,56.60
2019-04-04T08:07:38.034Z,56.50
2019-04-04T08:10:20.023Z,56.60
2019-04-04T08:12:39.596Z,56.60
2019-04-04T08:15:08.864Z,56.60
2019-04-04T08:17:38.505Z,56.50
2019-04-04T08:20:07.752Z,56.50
2019-04-04T08:22:39.733Z,56.50
2019-04-04T08:25:08.725Z,56.60
2019-04-04T08:27:38.509Z,57.50
2019-04-04T08:30:08.193Z,57.80
2019-04-04T08:32:37.465Z,57.50
2019-04-04T08:35:08.533Z,57.60
2019-04-04T08:37:38.055Z,57.30
2019-04-04T08:40:07.614Z,57.30
2019-04-04T08:42:37.141Z,57.10
2019-04-04T08:45:08.198Z,57.00
2019-04-04T08:47:38.235Z,56.90
2019-04-04T08:50:08.074Z,56.70
2019-04-04T08:52:37.341Z,56.60
2019-04-04T08:55:07.232Z,56.50
2019-04-04T08:57:36.956Z,56.30
2019-04-04T09:00:07.950Z,56.30
2019-04-04T09:02:37.528Z,56.30
2019-04-04T09:05:12.278Z,56.20
2019-04-04T09:07:38.189Z,56.20
2019-04-04T09:10:07.997Z,56.00
2019-04-04T09:12:37.406Z,56.00
2019-04-04T09:15:07.628Z,56.00
2019-04-04T09:17:37.480Z,55.80
2019-04-04T09:20:09.450Z,55.50
2019-04-04T09:22:40.776Z,55.00
2019-04-04T09:25:10.576Z,54.60
2019-04-04T09:27:40.714Z,54.70
2019-04-04T09:30:10.732Z,54.90
2019-04-04T09:32:40.584Z,54.90
2019-04-04T09:35:10.121Z,55.00
2019-04-04T09:37:39.693Z,55.00
2019-04-04T09:40:09.474Z,55.10
2019-04-04T09:42:38.781Z,55.00
2019-04-04T09:45:09.556Z,55.10
2019-04-04T09:47:39.350Z,55.10
2019-04-04T09:50:09.254Z,55.10
2019-04-04T09:52:38.677Z,55.10
2019-04-04T09:55:08.905Z,55.10
2019-04-04T09:57:38.445Z,55.20
2019-04-04T10:00:09.110Z,55.10
2019-04-04T10:02:38.853Z,55.10
2019-04-04T10:05:08.667Z,55.10
2019-04-04T10:07:37.924Z,55.40
2019-04-04T10:10:07.733Z,55.10
2019-04-04T10:12:37.646Z,55.10
2019-04-04T10:15:08.018Z,55.10
2019-04-04T10:17:37.739Z,55.10
2019-04-04T10:20:07.256Z,55.10
2019-04-04T10:22:36.540Z,55.10
2019-04-04T10:25:06.141Z,55.00
2019-04-04T10:27:35.939Z,55.00
2019-04-04T10:30:06.605Z,55.00
2019-04-04T10:32:36.083Z,55.00
2019-04-04T10:35:06.539Z,55.10
2019-04-04T10:37:35.809Z,55.00
2019-04-04T10:40:06.175Z,55.00
2019-04-04T10:42:35.477Z,55.00
2019-04-04T10:45:06.041Z,55.10
2019-04-04T10:47:35.331Z,55.10
2019-04-04T10:50:05.734Z,55.10
2019-04-04T10:52:35.285Z,55.10
2019-04-04T10:55:05.052Z,55.00
2019-04-04T10:57:34.342Z,55.00
2019-04-04T11:00:03.648Z,55.00
2019-04-04T11:02:33.153Z,55.10
2019-04-04T11:05:02.647Z,55.00
2019-04-04T11:07:32.235Z,55.00
2019-04-04T11:10:01.464Z,55.00
2019-04-04T11:12:30.768Z,55.00
2019-04-04T11:15:00.674Z,54.90
2019-04-04T11:17:30.292Z,54.40
2019-04-04T11:19:59.596Z,54.10
2019-04-04T11:22:29.172Z,54.00
2019-04-04T11:24:58.968Z,54.20
2019-04-04T11:27:28.232Z,54.20
2019-04-04T11:29:57.761Z,54.20
2019-04-04T11:32:27.059Z,54.20
2019-04-04T11:34:56.802Z,54.30
2019-04-04T11:37:26.203Z,54.50
2019-04-04T11:39:55.518Z,54.40
2019-04-04T11:42:25.242Z,54.50
2019-04-04T11:44:54.958Z,54.40
2019-04-04T11:47:24.700Z,54.50
2019-04-04T11:49:54.212Z,54.40
2019-04-04T11:52:23.704Z,54.50
2019-04-04T11:54:57.162Z,54.50
2019-04-04T11:57:26.662Z,55.40
2019-04-04T11:59:56.260Z,54.60
2019-04-04T12:02:26.948Z,54.50
2019-04-04T12:04:57.810Z,54.50
2019-04-04T12:07:27.406Z,54.50
2019-04-04T12:10:06.718Z,54.60
2019-04-04T12:12:27.851Z,54.50
2019-04-04T12:14:57.141Z,54.60
2019-04-04T12:17:26.700Z,55.10
2019-04-04T12:19:56.283Z,54.50
2019-04-04T12:22:25.807Z,54.50
2019-04-04T12:24:55.141Z,54.50
2019-04-04T12:27:24.905Z,54.50
2019-04-04T12:29:54.661Z,54.50
2019-04-04T12:32:24.137Z,54.50
2019-04-04T12:34:53.428Z,54.50
2019-04-04T12:37:23.301Z,54.50
2019-04-04T12:39:52.860Z,54.40
2019-04-04T12:42:22.651Z,54.50
2019-04-04T12:44:52.167Z,54.30
2019-04-04T12:47:21.828Z,54.10
2019-04-04T12:49:51.358Z,54.10
2019-04-04T12:52:20.638Z,54.80
2019-04-04T12:54:49.940Z,54.20
2019-04-04T12:57:19.234Z,54.10
2019-04-04T12:59:48.757Z,54.10
2019-04-04T13:02:18.258Z,54.10
2019-04-04T13:04:47.528Z,54.20
2019-04-04T13:07:16.898Z,54.20
2019-04-04T13:09:46.353Z,54.10
2019-04-04T13:12:15.803Z,54.20
2019-04-04T13:14:45.310Z,54.30
2019-04-04T13:17:15.154Z,54.30
2019-04-04T13:19:44.405Z,54.30
2019-04-04T13:22:14.124Z,54.30
2019-04-04T13:24:43.990Z,54.30
2019-04-04T13:27:13.729Z,54.40
2019-04-04T13:29:43.118Z,54.20
2019-04-04T13:32:13.024Z,54.30
2019-04-04T13:34:42.758Z,54.30
2019-04-04T13:37:12.022Z,54.30
2019-04-04T13:39:41.956Z,54.30
2019-04-04T13:42:11.232Z,54.30
2019-04-04T13:44:41.064Z,54.40
2019-04-04T13:47:10.582Z,54.30
2019-04-04T13:49:40.199Z,54.40
2019-04-04T13:52:11.544Z,54.30
2019-04-04T13:54:40.335Z,54.30
2019-04-04T13:57:10.105Z,54.30
2019-04-04T13:59:39.420Z,54.40
2019-04-04T14:02:08.906Z,54.30
2019-04-04T14:04:38.359Z,54.30
2019-04-04T14:07:10.444Z,54.50
2019-04-04T14:09:40.128Z,55.30
2019-04-04T14:12:09.598Z,55.60
2019-04-04T14:14:39.156Z,55.30
2019-04-04T14:17:08.876Z,55.30
2019-04-04T14:19:38.633Z,55.10
2019-04-04T14:22:08.333Z,55.30
2019-04-04T14:24:37.932Z,55.40
2019-04-04T14:27:07.487Z,55.50
2019-04-04T14:29:36.926Z,55.50
2019-04-04T14:32:06.213Z,55.60
2019-04-04T14:34:35.608Z,55.70
2019-04-04T14:37:05.025Z,56.40
2019-04-04T14:39:34.338Z,56.40
2019-04-04T14:42:04.060Z,56.20
2019-04-04T14:44:35.789Z,56.20
2019-04-04T14:47:04.519Z,56.30
2019-04-04T14:49:33.831Z,56.00
2019-04-04T14:52:03.069Z,56.00
2019-04-04T14:54:33.781Z,55.90
2019-04-04T14:57:03.417Z,56.00
2019-04-04T14:59:33.186Z,56.10
2019-04-04T15:02:02.489Z,57.10
2019-04-04T15:04:33.111Z,57.20
2019-04-04T15:07:03.083Z,57.70
2019-04-04T15:09:32.480Z,58.40
2019-04-04T15:12:04.692Z,57.70
2019-04-04T15:14:34.152Z,57.80
2019-04-04T15:17:03.439Z,58.10
2019-04-04T15:19:32.724Z,58.00
2019-04-04T15:22:02.009Z,58.30
2019-04-04T15:24:31.320Z,58.60
2019-04-04T15:27:00.625Z,58.70
2019-04-04T15:29:29.986Z,58.80
2019-04-04T15:31:59.463Z,58.90
2019-04-04T15:34:28.751Z,58.90
2019-04-04T15:36:58.055Z,58.50
2019-04-04T15:39:27.352Z,59.00
2019-04-04T15:41:56.727Z,58.60
2019-04-04T15:44:26.018Z,59.10
2019-04-04T15:46:55.365Z,58.80
2019-04-04T15:49:24.884Z,58.70
2019-04-04T15:51:54.187Z,58.30
2019-04-04T15:54:23.583Z,58.30
2019-04-04T15:56:52.863Z,58.60
2019-04-04T15:59:22.216Z,59.20
2019-04-04T16:01:51.537Z,58.80
2019-04-04T16:04:20.832Z,59.00
2019-04-04T16:06:50.234Z,59.70
2019-04-04T16:09:19.536Z,59.70
2019-04-04T16:11:49.959Z,59.50
2019-04-04T16:14:19.504Z,60.00
2019-04-04T16:16:49.637Z,59.50
2019-04-04T16:19:19.024Z,59.40
2019-04-04T16:21:48.436Z,59.20
2019-04-04T16:24:17.796Z,58.80
2019-04-04T16:26:48.356Z,58.40
2019-04-04T16:29:18.308Z,58.60
2019-04-04T16:31:47.604Z,58.40
2019-04-04T16:34:16.860Z,58.30
2019-04-04T16:36:46.149Z,58.30
2019-04-04T16:39:18.525Z,58.30
2019-04-04T16:41:47.904Z,58.00
2019-04-04T16:44:17.188Z,58.10
2019-04-04T16:46:46.466Z,58.30
2019-04-04T16:49:15.757Z,58.20
2019-04-04T16:51:45.076Z,58.00
2019-04-04T16:54:14.341Z,58.00
2019-04-04T16:56:43.636Z,58.20
2019-04-04T16:59:13.161Z,58.10
2019-04-04T17:01:43.103Z,58.10
2019-04-04T17:04:12.409Z,58.10
2019-04-04T17:06:42.279Z,58.10
2019-04-04T17:09:11.685Z,58.10
2019-04-04T17:11:40.938Z,58.00
2019-04-04T17:14:10.226Z,57.90
2019-04-04T17:16:39.545Z,57.80
2019-04-04T17:19:08.964Z,57.80
2019-04-04T17:21:38.214Z,57.80
2019-04-04T17:24:07.546Z,57.80
2019-04-04T17:26:36.804Z,57.30
2019-04-04T17:29:06.287Z,57.80
2019-04-04T17:31:35.858Z,57.90
2019-04-04T17:34:05.500Z,57.90
2019-04-04T17:36:35.155Z,57.90
2019-04-04T17:39:06.451Z,57.50
2019-04-04T17:41:35.795Z,58.00
2019-04-04T17:44:05.395Z,57.90
2019-04-04T17:46:34.696Z,57.00
2019-04-04T17:49:04.670Z,57.50
2019-04-04T17:51:34.404Z,56.80
2019-04-04T17:54:03.986Z,57.50
2019-04-04T17:56:33.328Z,56.70
2019-04-04T17:59:03.437Z,57.20
2019-04-04T18:01:35.276Z,57.50
2019-04-04T18:04:04.564Z,57.00
2019-04-04T18:06:33.955Z,57.30
2019-04-04T18:09:03.356Z,57.70
2019-04-04T18:11:32.703Z,57.50
2019-04-04T18:14:04.951Z,57.50
2019-04-04T18:16:34.283Z,57.60
2019-04-04T18:19:06.434Z,57.90
2019-04-04T18:21:35.858Z,57.80
2019-04-04T18:24:05.526Z,57.90
2019-04-04T18:26:34.800Z,58.30
2019-04-04T18:29:04.064Z,58.30
2019-04-04T18:31:33.383Z,58.70
2019-04-04T18:34:03.222Z,58.70
2019-04-04T18:36:32.569Z,58.90
2019-04-04T18:39:01.837Z,59.20
2019-04-04T18:41:31.166Z,59.30
2019-04-04T18:44:00.441Z,59.60
2019-04-04T18:46:29.759Z,59.70
2019-04-04T18:48:59.077Z,60.00
2019-04-04T18:51:28.410Z,60.00
2019-04-04T18:53:57.878Z,60.30
2019-04-04T18:56:27.395Z,60.50
2019-04-04T18:58:56.893Z,60.60
2019-04-04T19:01:26.377Z,61.20
2019-04-04T19:03:55.760Z,61.60
2019-04-04T19:06:25.084Z,61.80
2019-04-04T19:08:54.419Z,61.70
2019-04-04T19:11:23.703Z,62.20
2019-04-04T19:13:53.729Z,62.50
2019-04-04T19:16:23.188Z,61.70
2019-04-04T19:18:53.521Z,64.50
2019-04-04T19:21:22.814Z,63.50
2019-04-04T19:23:52.912Z,66.30
2019-04-04T19:26:22.295Z,65.50
2019-04-04T19:28:51.701Z,66.30
2019-04-04T19:31:21.111Z,64.80
2019-04-04T19:33:50.403Z,65.90
2019-04-04T19:36:19.712Z,66.20
2019-04-04T19:38:49.250Z,65.10
2019-04-04T19:41:18.603Z,64.10
2019-04-04T19:43:47.872Z,63.30
2019-04-04T19:46:17.153Z,62.60
2019-04-04T19:48:48.321Z,62.40
2019-04-04T19:51:17.207Z,61.90
2019-04-04T19:53:46.644Z,61.50
2019-04-04T19:56:15.970Z,61.30
2019-04-04T19:58:45.262Z,61.40
2019-04-04T20:01:14.565Z,61.30
2019-04-04T20:03:43.843Z,60.30
2019-04-04T20:06:13.134Z,60.30
2019-04-04T20:08:42.436Z,59.50
2019-04-04T20:11:11.838Z,59.50
2019-04-04T20:13:41.461Z,59.70
2019-04-04T20:16:12.368Z,59.00
2019-04-04T20:18:42.919Z,53.20
2019-04-04T20:21:12.358Z,56.40
2019-04-04T20:23:41.774Z,54.40
2019-04-04T20:26:13.689Z,53.70
2019-04-04T20:28:42.992Z,53.30
2019-04-04T20:31:12.295Z,52.70
2019-04-04T20:33:41.601Z,53.20
2019-04-04T20:36:11.040Z,53.90
2019-04-04T20:38:40.380Z,53.20
2019-04-04T20:41:09.751Z,52.60
2019-04-04T20:43:43.540Z,53.10
2019-04-04T20:46:10.632Z,52.90
2019-04-04T20:48:39.937Z,53.50
2019-04-04T20:51:10.455Z,53.30
2019-04-04T20:53:39.768Z,53.50
2019-04-04T20:56:09.058Z,53.20
2019-04-04T20:58:38.337Z,52.50
2019-04-04T21:01:07.647Z,54.50
2019-04-04T21:03:36.967Z,55.30
2019-04-04T21:06:06.225Z,55.20
2019-04-04T21:08:35.823Z,55.50
2019-04-04T21:11:05.513Z,55.10
2019-04-04T21:13:35.098Z,53.80
2019-04-04T21:16:04.418Z,54.50
2019-04-04T21:18:33.706Z,55.60
2019-04-04T21:21:02.973Z,55.60
2019-04-04T21:23:32.299Z,55.60
2019-04-04T21:26:01.966Z,55.70
2019-04-04T21:28:31.415Z,55.80
2019-04-04T21:31:00.714Z,55.80
2019-04-04T21:33:29.996Z,55.80
2019-04-04T21:36:00.018Z,55.90
2019-04-04T21:38:29.308Z,55.90
2019-04-04T21:40:58.584Z,55.80
2019-04-04T21:43:27.852Z,55.90
2019-04-04T21:45:57.148Z,55.90
2019-04-04T21:48:26.431Z,55.90
2019-04-04T21:50:55.708Z,55.90
2019-04-04T21:53:25.017Z,55.90
2019-04-04T21:55:54.613Z,55.80
2019-04-04T21:58:24.198Z,55.90
2019-04-04T22:00:57.627Z,55.80
2019-04-04T22:03:27.002Z,55.90
2019-04-04T22:05:56.273Z,55.90
2019-04-04T22:08:25.567Z,55.90
2019-04-04T22:10:54.882Z,55.90
2019-04-04T22:13:24.137Z,56.00
2019-04-04T22:15:53.751Z,56.00
2019-04-04T22:18:23.035Z,56.00
2019-04-04T22:20:52.309Z,55.90
2019-04-04T22:23:21.589Z,56.00
2019-04-04T22:25:50.829Z,56.00
2019-04-04T22:28:20.263Z,56.10
2019-04-04T22:30:50.106Z,56.10
2019-04-04T22:33:19.388Z,56.10
2019-04-04T22:35:48.674Z,56.00
2019-04-04T22:38:17.968Z,56.10
2019-04-04T22:40:47.240Z,56.10
2019-04-04T22:43:16.564Z,56.10
2019-04-04T22:45:45.879Z,56.10
2019-04-04T22:48:15.428Z,56.00
2019-04-04T22:50:44.896Z,56.10
2019-04-04T22:53:14.205Z,56.00
2019-04-04T22:55:43.474Z,56.00
2019-04-04T22:58:12.755Z,56.00
2019-04-04T23:00:42.071Z,56.00
2019-04-04T23:03:11.436Z,56.10
2019-04-04T23:05:40.931Z,56.10
2019-04-04T23:08:10.648Z,56.00
2019-04-04T23:10:39.922Z,56.10
2019-04-04T23:13:09.202Z,56.00
2019-04-04T23:15:38.990Z,55.80
2019-04-04T23:18:08.627Z,55.80
2019-04-04T23:20:37.924Z,55.70
2019-04-04T23:23:07.206Z,55.70
2019-04-04T23:25:36.783Z,55.70
2019-04-04T23:28:06.158Z,55.70
2019-04-04T23:30:35.510Z,55.80
2019-04-04T23:33:04.988Z,55.80
2019-04-04T23:35:34.247Z,55.80
2019-04-04T23:38:03.869Z,55.80
2019-04-04T23:40:33.526Z,55.80
2019-04-04T23:43:03.705Z,55.90
2019-04-04T23:45:33.241Z,55.90
2019-04-04T23:48:02.863Z,55.80
2019-04-04T23:50:32.274Z,55.80
2019-04-04T23:53:01.944Z,55.90
2019-04-04T23:55:31.195Z,55.80
2019-04-04T23:58:00.596Z,55.70
